createdAt,value
2023-11-03T00:03:18.226Z,92712.13
2023-11-03T00:07:01.047Z,92669.50
2023-11-03T00:10:45.239Z,92625.59
2023-11-03T00:14:28.587Z,92617.81
2023-11-03T00:18:12.337Z,92641.88
2023-11-03T00:21:55.296Z,92623.81
2023-11-03T00:25:38.069Z,92612.56
2023-11-03T00:29:22.183Z,92633.50
2023-11-03T00:33:05.031Z,92684.75
2023-11-03T00:36:48.770Z,92676.88
2023-11-03T00:40:31.935Z,92648.81
2023-11-03T00:44:14.649Z,92605.63
2023-11-03T00:47:59.259Z,92616.06
2023-11-03T00:51:42.320Z,92627.59
2023-11-03T00:55:25.098Z,92661.34
2023-11-03T00:59:09.009Z,92700.78
2023-11-03T01:02:51.876Z,92692.91
2023-11-03T01:06:36.508Z,92676.16
2023-11-03T01:10:19.546Z,92682.16
2023-11-03T01:14:02.269Z,92690.75
2023-11-03T01:17:45.102Z,92666.69
2023-11-03T01:21:29.259Z,92685.28
2023-11-03T01:25:13.969Z,92696.03
2023-11-03T01:28:57.522Z,92677.72
2023-11-03T01:32:40.311Z,92691.34
2023-11-03T01:36:23.805Z,92635.41
2023-11-03T01:40:09.925Z,92619.75
2023-11-03T01:44:08.351Z,92595.19
2023-11-03T01:47:51.205Z,92595.72
2023-11-03T01:51:34.698Z,92597.03
2023-11-03T01:55:17.962Z,92615.06
2023-11-03T01:59:03.772Z,92630.50
2023-11-03T02:02:48.902Z,92628.69
2023-11-03T02:06:31.874Z,92637.53
2023-11-03T02:10:14.729Z,92649.00
2023-11-03T02:13:57.974Z,92638.56
2023-11-03T02:17:41.509Z,92630.19
2023-11-03T02:21:25.601Z,92626.72
2023-11-03T02:25:10.615Z,92621.75
2023-11-03T02:28:54.036Z,92618.34
2023-11-03T02:32:36.780Z,92605.75
2023-11-03T02:36:20.421Z,92603.38
2023-11-03T02:40:03.422Z,92604.94
2023-11-03T02:43:47.687Z,92591.09
2023-11-03T02:47:30.809Z,92579.31
2023-11-03T02:51:13.686Z,92573.59
2023-11-03T02:54:56.525Z,92576.16
2023-11-03T02:58:40.099Z,92575.25
2023-11-03T03:02:24.251Z,92572.34
2023-11-03T03:06:07.290Z,92578.13
2023-11-03T03:09:50.062Z,92590.44
2023-11-03T03:13:32.817Z,92581.28
2023-11-03T03:17:15.573Z,92582.56
2023-11-03T03:20:59.658Z,92580.19
2023-11-03T03:24:42.468Z,92568.66
2023-11-03T03:28:25.253Z,92556.09
2023-11-03T03:32:08.178Z,92557.13
2023-11-03T03:35:51.253Z,92559.75
2023-11-03T03:39:35.457Z,92566.00
2023-11-03T03:43:18.173Z,92566.50
2023-11-03T03:47:00.980Z,92566.50
2023-11-03T03:50:43.719Z,92561.28
2023-11-03T03:54:26.431Z,92556.56
2023-11-03T03:58:10.558Z,92568.03
2023-11-03T04:01:53.277Z,92574.28
2023-11-03T04:05:36.055Z,92584.19
2023-11-03T04:09:18.801Z,92565.66
2023-11-03T04:13:01.554Z,92579.06
2023-11-03T04:16:45.662Z,92581.22
2023-11-03T04:20:28.389Z,92574.47
2023-11-03T04:24:11.268Z,92571.63
2023-11-03T04:27:54.008Z,92567.19
2023-11-03T04:31:36.773Z,92565.09
2023-11-03T04:35:20.912Z,92557.50
2023-11-03T04:39:06.408Z,92565.59
2023-11-03T04:42:49.202Z,92551.50
2023-11-03T04:46:31.938Z,92543.66
2023-11-03T04:50:14.692Z,92542.03
2023-11-03T04:53:58.814Z,92534.16
2023-11-03T04:57:42.056Z,92553.97
2023-11-03T05:01:24.783Z,92567.53
2023-11-03T05:05:08.345Z,92565.41
2023-11-03T05:08:51.053Z,92580.59
2023-11-03T05:12:35.142Z,92575.38
2023-11-03T05:16:17.886Z,92591.34
2023-11-03T05:20:00.557Z,92586.41
2023-11-03T05:23:43.311Z,92595.56
2023-11-03T05:27:26.063Z,92588.56
2023-11-03T05:31:10.401Z,92594.88
2023-11-03T05:34:53.375Z,92593.84
2023-11-03T05:38:36.112Z,92587.59
2023-11-03T05:42:18.880Z,92577.16
2023-11-03T05:46:01.798Z,92583.97
2023-11-03T05:49:45.996Z,92590.75
2023-11-03T05:53:28.742Z,92591.72
2023-11-03T05:57:11.586Z,92595.44
2023-11-03T06:00:55.506Z,92596.66
2023-11-03T06:04:38.422Z,92595.28
2023-11-03T06:08:22.699Z,92595.78
2023-11-03T06:12:06.489Z,92598.94
2023-11-03T06:15:49.371Z,92599.72
2023-11-03T06:19:32.581Z,92597.34
2023-11-03T06:23:15.337Z,92603.06
2023-11-03T06:27:00.931Z,92623.78
2023-11-03T06:30:44.211Z,92635.50
2023-11-03T06:34:27.067Z,92649.06
2023-11-03T06:38:09.883Z,92646.38
2023-11-03T06:41:52.614Z,92644.88
2023-11-03T06:45:36.739Z,92636.69
2023-11-03T06:49:19.577Z,92637.47
2023-11-03T06:53:02.570Z,92655.69
2023-11-03T06:56:46.448Z,92666.38
2023-11-03T07:00:29.809Z,92678.94
2023-11-03T07:04:15.444Z,92678.66
2023-11-03T07:07:58.591Z,92659.81
2023-11-03T07:11:41.996Z,92668.38
2023-11-03T07:15:24.883Z,92656.19
2023-11-03T07:19:15.224Z,92644.94
2023-11-03T07:22:58.175Z,92657.66
2023-11-03T07:26:41.159Z,92648.28
2023-11-03T07:30:23.918Z,92661.28
2023-11-03T07:34:06.844Z,92664.31
2023-11-03T07:37:52.066Z,92661.22
2023-11-03T07:41:35.598Z,92664.88
2023-11-03T07:45:18.489Z,92670.75
2023-11-03T07:49:01.301Z,92682.72
2023-11-03T07:52:44.357Z,92688.50
2023-11-03T07:56:35.542Z,92697.09
2023-11-03T08:00:21.596Z,92703.66
2023-11-03T08:04:05.424Z,92703.38
2023-11-03T08:07:49.026Z,92707.25
2023-11-03T08:11:33.164Z,92728.19
2023-11-03T08:15:16.491Z,92728.50
2023-11-03T08:18:59.762Z,92721.22
2023-11-03T08:22:42.656Z,92723.59
2023-11-03T08:26:25.438Z,92740.03
2023-11-03T08:30:10.812Z,92737.19
2023-11-03T08:33:53.926Z,92735.13
2023-11-03T08:37:36.753Z,92756.25
2023-11-03T08:41:20.289Z,92754.44
2023-11-03T08:45:03.667Z,92751.88
2023-11-03T08:48:47.950Z,92754.56
2023-11-03T08:52:31.782Z,92748.84
2023-11-03T08:56:14.720Z,92748.66
2023-11-03T08:59:57.460Z,92747.88
2023-11-03T09:03:41.733Z,92756.25
2023-11-03T09:07:25.901Z,92761.06
2023-11-03T09:11:08.710Z,92764.25
2023-11-03T09:14:51.885Z,92760.84
2023-11-03T09:18:38.207Z,92768.25
2023-11-03T09:22:28.520Z,92775.34
2023-11-03T09:26:17.955Z,92781.88
2023-11-03T09:30:01.302Z,92782.66
2023-11-03T09:33:44.149Z,92776.63
2023-11-03T09:37:26.987Z,92779.31
2023-11-03T09:41:10.439Z,92792.69
2023-11-03T09:44:54.622Z,92797.34
2023-11-03T09:48:39.085Z,92798.75
2023-11-03T09:52:24.889Z,92806.34
2023-11-03T09:56:08.981Z,92807.94
2023-11-03T09:59:51.825Z,92797.41
2023-11-03T10:03:36.120Z,92780.69
2023-11-03T10:07:19.674Z,92797.41
2023-11-03T10:11:06.253Z,92786.72
2023-11-03T10:14:49.256Z,92782.28
2023-11-03T10:18:32.210Z,92784.84
2023-11-03T10:22:16.570Z,92784.09
2023-11-03T10:25:59.381Z,92775.47
2023-11-03T10:29:42.478Z,92783.19
2023-11-03T10:33:26.230Z,92787.88
2023-11-03T10:37:10.673Z,92790.91
2023-11-03T10:40:55.599Z,92785.59
2023-11-03T10:44:39.912Z,92778.88
2023-11-03T10:48:28.091Z,92784.13
2023-11-03T10:52:13.821Z,92788.19
2023-11-03T10:56:15.705Z,92786.78
2023-11-03T11:00:12.332Z,92777.44
2023-11-03T11:03:59.247Z,92784.41
2023-11-03T11:07:44.168Z,92777.56
2023-11-03T11:11:29.312Z,92773.97
2023-11-03T11:15:13.498Z,92787.56
2023-11-03T11:18:56.357Z,92779.69
2023-11-03T11:22:42.162Z,92779.22
2023-11-03T11:26:34.694Z,92790.44
2023-11-03T11:30:20.474Z,92807.16
2023-11-03T11:34:04.519Z,92807.00
2023-11-03T11:37:47.479Z,92815.25
2023-11-03T11:41:31.613Z,92815.31
2023-11-03T11:45:15.693Z,92820.16
2023-11-03T11:49:02.560Z,92822.13
2023-11-03T11:52:50.133Z,92820.94
2023-11-03T11:56:33.185Z,92820.47
2023-11-03T12:00:17.727Z,92831.78
2023-11-03T12:04:07.270Z,92822.69
2023-11-03T12:07:50.269Z,92817.19
2023-11-03T12:11:34.000Z,92819.47
2023-11-03T12:15:16.861Z,92815.03
2023-11-03T12:18:59.720Z,92816.69
2023-11-03T12:22:44.565Z,92824.75
2023-11-03T12:26:27.796Z,92822.34
2023-11-03T12:30:12.983Z,92826.72
2023-11-03T12:34:02.624Z,92824.56
2023-11-03T12:37:47.105Z,92818.22
2023-11-03T12:41:30.066Z,92830.63
2023-11-03T12:45:13.462Z,92827.28
2023-11-03T12:49:07.740Z,92838.91
2023-11-03T12:53:04.257Z,92834.94
2023-11-03T12:56:47.271Z,92854.44
2023-11-03T13:00:33.021Z,92856.97
2023-11-03T13:04:16.135Z,92839.25
2023-11-03T13:08:03.024Z,92853.28
2023-11-03T13:11:47.274Z,92834.19
2023-11-03T13:15:30.125Z,92847.00
2023-11-03T13:19:12.961Z,92840.53
2023-11-03T13:23:00.192Z,92842.41
2023-11-03T13:26:44.414Z,92840.28
2023-11-03T13:30:27.254Z,92849.91
2023-11-03T13:34:10.549Z,92843.16
2023-11-03T13:37:53.540Z,92834.25
2023-11-03T13:41:36.513Z,92850.31
2023-11-03T13:45:20.641Z,92856.72
2023-11-03T13:49:05.219Z,92855.81
2023-11-03T13:52:48.035Z,92866.81
2023-11-03T13:56:30.840Z,92874.13
2023-11-03T14:00:15.312Z,92867.94
2023-11-03T14:03:59.600Z,92880.81
2023-11-03T14:07:42.430Z,92877.34
2023-11-03T14:11:25.261Z,92899.69
2023-11-03T14:15:10.858Z,92891.88
2023-11-03T14:18:54.647Z,92908.75
2023-11-03T14:22:38.861Z,92916.81
2023-11-03T14:26:24.124Z,92912.84
2023-11-03T14:30:09.612Z,92905.72
2023-11-03T14:33:53.265Z,92917.75
2023-11-03T14:37:36.146Z,92922.19
2023-11-03T14:41:20.316Z,92922.44
2023-11-03T14:45:03.183Z,92936.28
2023-11-03T14:48:46.030Z,92937.00
2023-11-03T14:52:29.016Z,92930.13
2023-11-03T14:56:11.858Z,92942.63
2023-11-03T14:59:55.991Z,92963.06
2023-11-03T15:03:39.790Z,92951.19
2023-11-03T15:07:23.628Z,92956.41
2023-11-03T15:11:06.402Z,92959.25
2023-11-03T15:14:49.362Z,92958.63
2023-11-03T15:18:34.326Z,92956.41
2023-11-03T15:22:17.267Z,92952.28
2023-11-03T15:26:00.066Z,92958.47
2023-11-03T15:29:43.149Z,92965.72
2023-11-03T15:33:25.899Z,92964.22
2023-11-03T15:37:11.301Z,92967.22
2023-11-03T15:40:54.243Z,92968.25
2023-11-03T15:44:36.960Z,92980.59
2023-11-03T15:48:19.712Z,92994.28
2023-11-03T15:52:02.590Z,93000.38
2023-11-03T15:55:48.433Z,93004.16
2023-11-03T15:59:31.293Z,93005.88
2023-11-03T16:03:16.403Z,93004.59
2023-11-03T16:06:59.224Z,93026.44
2023-11-03T16:10:43.426Z,93018.69
2023-11-03T16:14:27.655Z,93023.44
2023-11-03T16:18:11.094Z,93028.91
2023-11-03T16:21:53.850Z,93035.84
2023-11-03T16:25:36.671Z,93039.94
2023-11-03T16:29:19.954Z,93052.53
2023-11-03T16:33:04.337Z,93056.63
2023-11-03T16:36:47.182Z,93062.31
2023-11-03T16:40:30.377Z,93070.38
2023-11-03T16:44:13.139Z,93080.69
2023-11-03T16:47:56.046Z,93083.28
2023-11-03T16:51:45.443Z,93078.31
2023-11-03T16:55:31.799Z,93089.88
2023-11-03T16:59:18.909Z,93087.25
2023-11-03T17:03:01.683Z,93086.81
2023-11-03T17:06:45.819Z,93096.59
2023-11-03T17:10:28.639Z,93094.34
2023-11-03T17:14:11.430Z,93093.53
2023-11-03T17:17:54.190Z,93093.78
2023-11-03T17:21:36.960Z,93105.59
2023-11-03T17:25:21.498Z,93110.38
2023-11-03T17:29:07.046Z,93110.59
2023-11-03T17:32:50.207Z,93119.78
2023-11-03T17:36:33.062Z,93125.47
2023-11-03T17:40:17.799Z,93128.16
2023-11-03T17:44:02.026Z,93132.25
2023-11-03T17:47:46.204Z,93135.56
2023-11-03T17:51:29.190Z,93142.44
2023-11-03T17:55:14.707Z,93153.69
2023-11-03T17:58:57.589Z,93152.09
2023-11-03T18:02:41.848Z,93153.00
2023-11-03T18:06:24.761Z,93154.22
2023-11-03T18:10:08.373Z,93149.22
2023-11-03T18:13:51.119Z,93153.88
2023-11-03T18:17:34.886Z,93160.69
2023-11-03T18:21:19.125Z,93166.00
2023-11-03T18:25:01.943Z,93166.34
2023-11-03T18:28:44.716Z,93179.16
2023-11-03T18:32:28.771Z,93176.31
2023-11-03T18:36:14.649Z,93172.94
2023-11-03T18:40:00.362Z,93180.53
2023-11-03T18:43:44.316Z,93175.31
2023-11-03T18:47:27.256Z,93190.94
2023-11-03T18:51:26.060Z,93194.00
2023-11-03T18:56:06.153Z,93194.56
2023-11-03T19:07:30.582Z,93199.44
2023-11-03T19:10:54.623Z,93198.31
2023-11-03T19:14:37.805Z,93205.22
2023-11-03T19:18:21.522Z,93205.91
2023-11-03T19:22:05.498Z,93221.91
2023-11-03T19:25:48.496Z,93233.56
2023-11-03T19:29:36.497Z,93231.28
2023-11-03T19:33:19.310Z,93238.22
2023-11-03T19:37:02.248Z,93238.78
2023-11-03T19:40:45.302Z,93251.59
2023-11-03T19:44:28.143Z,93254.56
2023-11-03T19:48:12.689Z,93250.69
2023-11-03T19:51:55.716Z,93263.72
2023-11-03T19:55:39.606Z,93277.63
2023-11-03T19:59:24.255Z,93273.44
2023-11-03T20:03:07.654Z,93277.63
2023-11-03T20:06:52.714Z,93276.72
2023-11-03T20:10:36.149Z,93287.59
2023-11-03T20:14:19.026Z,93286.78
2023-11-03T20:18:04.090Z,93288.75
2023-11-03T20:21:47.612Z,93289.53
2023-11-03T20:25:31.765Z,93302.44
2023-11-03T20:29:14.569Z,93313.31
2023-11-03T20:32:58.335Z,93301.28
2023-11-03T20:36:41.266Z,93301.63
2023-11-03T20:40:24.047Z,93313.88
2023-11-03T20:44:08.230Z,93309.38
2023-11-03T20:47:51.259Z,93304.72
2023-11-03T20:51:34.284Z,93302.69
2023-11-03T20:55:17.628Z,93309.19
2023-11-03T20:59:00.836Z,93305.00
2023-11-03T21:02:49.281Z,93304.53
2023-11-03T21:06:34.150Z,93307.72
2023-11-03T21:10:18.325Z,93303.66
2023-11-03T21:14:01.128Z,93311.03
2023-11-03T21:17:45.318Z,93315.66
2023-11-03T21:21:28.164Z,93314.09
2023-11-03T21:25:12.123Z,93317.72
2023-11-03T21:28:54.952Z,93312.16
2023-11-03T21:32:37.699Z,93308.06
2023-11-03T21:36:25.879Z,93313.63
2023-11-03T21:40:16.816Z,93305.00
2023-11-03T21:44:00.261Z,93308.16
2023-11-03T21:47:49.047Z,93295.44
2023-11-03T21:51:33.258Z,93306.53
2023-11-03T21:55:16.141Z,93303.00
2023-11-03T21:58:58.890Z,93301.41
2023-11-03T22:02:41.730Z,93304.69
2023-11-03T22:06:24.502Z,93308.66
2023-11-03T22:10:10.498Z,93308.19
2023-11-03T22:13:53.326Z,93310.13
2023-11-03T22:17:45.756Z,93307.81
2023-11-03T22:21:33.980Z,93304.03
2023-11-03T22:25:18.155Z,93307.09
2023-11-03T22:29:00.946Z,93303.97
2023-11-03T22:32:43.873Z,93307.25
2023-11-03T22:36:27.750Z,93304.28
2023-11-03T22:40:12.863Z,93306.09
2023-11-03T22:43:57.075Z,93305.38
2023-11-03T22:47:40.229Z,93317.03
2023-11-03T22:51:23.073Z,93315.00
2023-11-03T22:55:06.596Z,93313.78
2023-11-03T22:58:49.455Z,93305.75
2023-11-03T23:02:33.679Z,93316.50
2023-11-03T23:06:19.066Z,93312.09
2023-11-03T23:10:02.113Z,93320.13
2023-11-03T23:13:45.926Z,93322.16
2023-11-03T23:17:28.716Z,93326.78
2023-11-03T23:21:13.267Z,93314.22
2023-11-03T23:24:56.049Z,93317.81
2023-11-03T23:28:41.100Z,93323.84
2023-11-03T23:32:24.027Z,93321.59
2023-11-03T23:36:07.717Z,93319.41
2023-11-03T23:39:51.811Z,93316.81
2023-11-03T23:43:34.736Z,93316.22
2023-11-03T23:47:17.497Z,93330.28
2023-11-03T23:51:00.248Z,93330.06
2023-11-03T23:54:43.089Z,93333.75
2023-11-03T23:58:27.196Z,93341.84
